createdAt,value
2023-04-27T00:01:25.512Z,14.84
2023-04-27T00:04:55.258Z,14.89
2023-04-27T00:08:24.634Z,14.92
2023-04-27T00:11:54.151Z,14.93
2023-04-27T00:15:22.858Z,14.93
2023-04-27T00:18:52.037Z,14.94
2023-04-27T00:22:21.405Z,14.96
2023-04-27T00:25:40.988Z,14.98
2023-04-27T00:28:52.912Z,15.02
2023-04-27T00:32:10.827Z,15.04
2023-04-27T00:35:30.680Z,15.06
2023-04-27T00:38:52.890Z,15.05
2023-04-27T00:42:22.022Z,15.01
2023-04-27T00:45:42.185Z,15.00
2023-04-27T00:49:11.944Z,14.99
2023-04-27T00:52:41.375Z,14.97
2023-04-27T00:56:10.614Z,14.93
2023-04-27T00:59:39.818Z,14.86
2023-04-27T01:03:11.042Z,14.79
2023-04-27T01:06:34.861Z,14.71
2023-04-27T01:09:54.610Z,14.62
2023-04-27T01:13:25.248Z,14.52
2023-04-27T01:16:54.958Z,14.44
2023-04-27T01:20:24.944Z,14.37
2023-04-27T01:23:55.220Z,14.32
2023-04-27T01:27:13.585Z,14.24
2023-04-27T01:30:43.284Z,14.18
2023-04-27T01:34:12.425Z,14.13
2023-04-27T01:37:43.281Z,14.07
2023-04-27T01:41:04.354Z,14.02
2023-04-27T01:44:33.621Z,13.98
2023-04-27T01:48:02.995Z,13.94
2023-04-27T01:51:33.445Z,13.91
2023-04-27T01:55:03.125Z,13.89
2023-04-27T01:58:32.840Z,13.85
2023-04-27T02:02:03.955Z,13.82
2023-04-27T02:05:33.457Z,13.80
2023-04-27T02:09:02.922Z,13.77
2023-04-27T02:12:32.759Z,13.73
2023-04-27T02:16:02.311Z,13.69
2023-04-27T02:19:25.995Z,13.67
2023-04-27T02:22:55.176Z,13.64
2023-04-27T02:26:24.695Z,13.61
2023-04-27T02:29:55.877Z,13.61
2023-04-27T02:33:25.735Z,13.60
2023-04-27T02:36:55.254Z,13.61
2023-04-27T02:40:15.762Z,13.61
2023-04-27T02:43:45.083Z,13.60
2023-04-27T02:46:51.431Z,13.58
2023-04-27T02:50:21.015Z,13.56
2023-04-27T02:53:49.936Z,13.54
2023-04-27T02:57:19.584Z,13.53
2023-04-27T03:00:49.529Z,13.49
2023-04-27T03:04:20.118Z,13.48
2023-04-27T03:07:49.165Z,13.48
2023-04-27T03:11:18.592Z,13.50
2023-04-27T03:14:41.372Z,13.51
2023-04-27T03:18:10.655Z,13.52
2023-04-27T03:21:40.167Z,13.52
2023-04-27T03:25:10.901Z,13.51
2023-04-27T03:28:41.326Z,13.49
2023-04-27T03:32:10.819Z,13.46
2023-04-27T03:35:40.254Z,13.42
2023-04-27T03:39:10.923Z,13.40
2023-04-27T03:42:39.415Z,13.38
2023-04-27T03:46:09.175Z,13.37
2023-04-27T03:49:39.685Z,13.33
2023-04-27T03:53:08.856Z,13.32
2023-04-27T03:56:41.061Z,13.30
2023-04-27T04:00:13.312Z,13.29
2023-04-27T04:03:42.707Z,13.25
2023-04-27T04:07:12.247Z,13.19
2023-04-27T04:10:42.028Z,13.13
2023-04-27T04:14:12.409Z,13.07
2023-04-27T04:17:41.899Z,13.00
2023-04-27T04:21:11.565Z,12.93
2023-04-27T04:24:41.672Z,12.85
2023-04-27T04:28:10.798Z,12.78
2023-04-27T04:31:40.198Z,12.74
2023-04-27T04:35:10.250Z,12.70
2023-04-27T04:38:39.308Z,12.65
2023-04-27T04:42:08.468Z,12.59
2023-04-27T04:45:37.667Z,12.54
2023-04-27T04:49:06.878Z,12.51
2023-04-27T04:52:37.389Z,12.46
2023-04-27T04:56:06.869Z,12.42
2023-04-27T04:59:35.983Z,12.38
2023-04-27T05:02:58.116Z,12.34
2023-04-27T05:06:27.644Z,12.31
2023-04-27T05:09:56.975Z,12.26
2023-04-27T05:13:26.041Z,12.20
2023-04-27T05:16:55.705Z,12.18
2023-04-27T05:20:26.548Z,12.14
2023-04-27T05:23:54.748Z,12.12
2023-04-27T05:27:24.481Z,12.09
2023-04-27T05:30:53.766Z,12.07
2023-04-27T05:34:23.005Z,12.04
2023-04-27T05:37:51.961Z,12.02
2023-04-27T05:41:14.120Z,12.00
2023-04-27T05:44:43.417Z,11.99
2023-04-27T05:48:11.497Z,11.99
2023-04-27T05:51:40.965Z,11.97
2023-04-27T05:55:10.531Z,11.95
2023-04-27T05:58:40.067Z,11.93
2023-04-27T06:02:00.341Z,11.90
2023-04-27T06:05:29.738Z,11.87
2023-04-27T06:08:59.196Z,11.84
2023-04-27T06:12:28.625Z,11.81
2023-04-27T06:15:58.386Z,11.79
2023-04-27T06:19:28.991Z,11.77
2023-04-27T06:23:01.318Z,11.73
2023-04-27T06:26:30.597Z,11.69
2023-04-27T06:29:59.955Z,11.66
2023-04-27T06:33:29.430Z,11.62
2023-04-27T06:36:48.789Z,11.61
2023-04-27T06:40:18.374Z,11.61
2023-04-27T06:43:47.598Z,11.60
2023-04-27T06:47:17.182Z,11.58
2023-04-27T06:50:47.287Z,11.56
2023-04-27T06:54:16.869Z,11.55
2023-04-27T06:57:46.148Z,11.56
2023-04-27T07:01:16.204Z,11.56
2023-04-27T07:04:46.164Z,11.55
2023-04-27T07:08:15.516Z,11.52
2023-04-27T07:11:43.593Z,11.50
2023-04-27T07:15:13.095Z,11.48
2023-04-27T07:18:43.664Z,11.45
2023-04-27T07:22:03.122Z,11.43
2023-04-27T07:25:32.528Z,11.40
2023-04-27T07:29:08.303Z,11.38
2023-04-27T07:32:43.834Z,11.36
2023-04-27T07:36:13.116Z,11.35
2023-04-27T07:39:42.352Z,11.35
2023-04-27T07:43:12.174Z,11.35
2023-04-27T07:46:41.465Z,11.32
2023-04-27T07:50:12.101Z,11.31
2023-04-27T07:53:41.445Z,11.27
2023-04-27T07:57:03.898Z,11.23
2023-04-27T08:00:33.075Z,11.20
2023-04-27T08:03:56.697Z,11.18
2023-04-27T08:07:26.227Z,11.15
2023-04-27T08:10:55.837Z,11.13
2023-04-27T08:14:25.034Z,11.08
2023-04-27T08:17:55.186Z,11.04
2023-04-27T08:21:24.214Z,11.01
2023-04-27T08:24:53.689Z,11.00
2023-04-27T08:28:22.954Z,10.98
2023-04-27T08:31:52.982Z,10.94
2023-04-27T08:35:23.922Z,10.91
2023-04-27T08:38:53.661Z,10.89
2023-04-27T08:42:25.444Z,10.86
2023-04-27T08:45:54.551Z,10.83
2023-04-27T08:49:24.630Z,10.80
2023-04-27T08:52:57.118Z,10.76
2023-04-27T08:56:26.588Z,10.74
2023-04-27T08:59:56.294Z,10.71
2023-04-27T09:03:18.986Z,10.68
2023-04-27T09:06:51.484Z,10.66
2023-04-27T09:10:26.773Z,10.65
2023-04-27T09:14:01.985Z,10.64
2023-04-27T09:17:38.814Z,10.62
2023-04-27T09:21:08.214Z,10.59
2023-04-27T09:24:37.498Z,10.57
2023-04-27T09:28:06.923Z,10.54
2023-04-27T09:31:36.587Z,10.54
2023-04-27T09:35:06.153Z,10.55
2023-04-27T09:38:35.515Z,10.56
2023-04-27T09:41:55.340Z,10.54
2023-04-27T09:45:24.761Z,10.52
2023-04-27T09:48:53.956Z,10.50
2023-04-27T09:52:23.277Z,10.48
2023-04-27T09:55:43.588Z,10.45
2023-04-27T09:59:20.245Z,10.41
2023-04-27T10:02:56.456Z,10.35
2023-04-27T10:06:30.218Z,10.30
2023-04-27T10:09:59.270Z,10.28
2023-04-27T10:13:38.052Z,10.26
2023-04-27T10:17:22.294Z,10.24
2023-04-27T10:20:50.608Z,10.21
2023-04-27T10:24:29.305Z,10.18
2023-04-27T10:27:58.780Z,10.17
2023-04-27T10:31:36.893Z,10.17
2023-04-27T10:35:12.177Z,10.15
2023-04-27T10:38:24.852Z,10.14
2023-04-27T10:42:01.174Z,10.14
2023-04-27T10:45:31.702Z,10.13
2023-04-27T10:49:02.435Z,10.11
2023-04-27T10:52:31.948Z,10.11
2023-04-27T10:56:01.391Z,10.11
2023-04-27T10:59:31.683Z,10.11
2023-04-27T11:02:56.555Z,10.11
2023-04-27T11:06:26.104Z,10.10
2023-04-27T11:09:55.660Z,10.10
2023-04-27T11:13:19.263Z,10.09
2023-04-27T11:16:51.614Z,10.08
2023-04-27T11:20:13.716Z,10.09
2023-04-27T11:23:46.102Z,10.09
2023-04-27T11:27:15.297Z,10.08
2023-04-27T11:30:44.694Z,10.07
2023-04-27T11:34:16.215Z,10.06
2023-04-27T11:37:45.638Z,10.03
2023-04-27T11:41:18.527Z,10.02
2023-04-27T11:44:47.910Z,10.02
2023-04-27T11:48:20.489Z,10.02
2023-04-27T11:51:49.781Z,10.02
2023-04-27T11:55:19.223Z,10.02
2023-04-27T11:58:49.751Z,10.03
2023-04-27T12:02:19.025Z,10.05
2023-04-27T12:05:48.327Z,10.05
2023-04-27T12:09:07.160Z,10.05
2023-04-27T12:12:35.456Z,10.06
2023-04-27T12:16:04.978Z,10.06
2023-04-27T12:19:34.450Z,10.04
2023-04-27T12:23:07.623Z,10.03
2023-04-27T12:26:37.225Z,9.99
2023-04-27T12:29:57.162Z,9.97
2023-04-27T12:33:26.287Z,9.97
2023-04-27T12:36:55.523Z,9.96
2023-04-27T12:40:25.052Z,9.94
2023-04-27T12:43:38.266Z,9.93
2023-04-27T12:47:07.472Z,9.91
2023-04-27T12:50:20.558Z,9.87
2023-04-27T12:53:49.556Z,9.85
2023-04-27T12:56:59.041Z,9.83
2023-04-27T13:00:28.634Z,9.79
2023-04-27T13:03:58.405Z,9.78
2023-04-27T13:07:27.902Z,9.75
2023-04-27T13:10:57.325Z,9.72
2023-04-27T13:14:29.496Z,9.69
2023-04-27T13:17:52.959Z,9.70
2023-04-27T13:21:22.891Z,9.69
2023-04-27T13:24:52.118Z,9.68
2023-04-27T13:28:22.304Z,9.63
2023-04-27T13:31:52.993Z,9.58
2023-04-27T13:35:22.195Z,9.53
2023-04-27T13:38:53.345Z,9.47
2023-04-27T13:42:22.610Z,9.43
2023-04-27T13:45:52.081Z,9.38
2023-04-27T13:49:21.394Z,9.35
2023-04-27T13:52:31.109Z,9.32
2023-04-27T13:55:46.856Z,9.30
2023-04-27T13:59:17.129Z,9.29
2023-04-27T14:02:46.481Z,9.27
2023-04-27T14:06:16.151Z,9.25
2023-04-27T14:09:45.351Z,9.24
2023-04-27T14:13:14.696Z,9.22
2023-04-27T14:16:37.918Z,9.19
2023-04-27T14:20:01.067Z,9.17
2023-04-27T14:23:30.230Z,9.15
2023-04-27T14:26:50.929Z,9.15
2023-04-27T14:30:21.203Z,9.15
2023-04-27T14:33:50.380Z,9.14
2023-04-27T14:37:20.080Z,9.13
2023-04-27T14:40:32.555Z,9.13
2023-04-27T14:43:55.255Z,9.13
2023-04-27T14:47:23.929Z,9.14
2023-04-27T14:50:53.433Z,9.15
2023-04-27T14:54:23.792Z,9.16
2023-04-27T14:57:52.294Z,9.17
2023-04-27T15:01:23.048Z,9.18
2023-04-27T15:04:53.699Z,9.21
2023-04-27T15:08:23.066Z,9.24
2023-04-27T15:11:52.467Z,9.29
2023-04-27T15:15:22.196Z,9.34
2023-04-27T15:18:51.262Z,9.40
2023-04-27T15:22:21.092Z,9.47
2023-04-27T15:25:50.564Z,9.54
2023-04-27T15:29:20.924Z,9.59
2023-04-27T15:32:50.541Z,9.65
2023-04-27T15:36:20.053Z,9.68
2023-04-27T15:39:49.619Z,9.72
2023-04-27T15:43:19.151Z,9.77
2023-04-27T15:46:48.419Z,9.78
2023-04-27T15:50:18.060Z,9.81
2023-04-27T15:53:48.154Z,9.82
2023-04-27T15:57:17.680Z,9.83
2023-04-27T16:00:48.341Z,9.86
2023-04-27T16:04:11.624Z,9.91
2023-04-27T16:07:31.621Z,9.96
2023-04-27T16:10:54.277Z,10.03
2023-04-27T16:14:23.532Z,10.10
2023-04-27T16:17:36.802Z,10.18
2023-04-27T16:21:06.000Z,10.25
2023-04-27T16:24:34.543Z,10.32
2023-04-27T16:28:03.739Z,10.40
2023-04-27T16:31:33.883Z,10.46
2023-04-27T16:34:46.427Z,10.52
2023-04-27T16:38:16.199Z,10.58
2023-04-27T16:41:30.098Z,10.64
2023-04-27T16:44:59.534Z,10.69
2023-04-27T16:48:28.929Z,10.73
2023-04-27T16:51:51.658Z,10.77
2023-04-27T16:55:13.649Z,10.81
2023-04-27T16:58:44.478Z,10.85
2023-04-27T17:02:20.937Z,10.88
2023-04-27T17:05:54.808Z,10.92
2023-04-27T17:09:24.402Z,10.96
2023-04-27T17:12:54.001Z,10.99
2023-04-27T17:16:23.544Z,11.03
2023-04-27T17:19:53.123Z,11.07
2023-04-27T17:23:22.465Z,11.10
2023-04-27T17:26:51.883Z,11.13
2023-04-27T17:30:21.147Z,11.16
2023-04-27T17:33:50.472Z,11.19
2023-04-27T17:37:20.044Z,11.21
2023-04-27T17:40:50.859Z,11.23
2023-04-27T17:44:20.140Z,11.25
2023-04-27T17:47:33.412Z,11.29
2023-04-27T17:51:02.716Z,11.32
2023-04-27T17:54:31.869Z,11.36
2023-04-27T17:57:54.380Z,11.40
2023-04-27T18:01:24.377Z,11.45
2023-04-27T18:04:53.795Z,11.49
2023-04-27T18:08:13.403Z,11.53
2023-04-27T18:11:36.344Z,11.57
2023-04-27T18:15:07.642Z,11.60
2023-04-27T18:18:39.063Z,11.65
2023-04-27T18:22:08.979Z,11.70
2023-04-27T18:25:38.573Z,11.76
2023-04-27T18:29:07.935Z,11.84
2023-04-27T18:32:28.572Z,11.89
2023-04-27T18:35:58.674Z,11.96
2023-04-27T18:39:19.285Z,12.04
2023-04-27T18:42:49.144Z,12.13
2023-04-27T18:46:18.677Z,12.24
2023-04-27T18:49:38.036Z,12.34
2023-04-27T18:53:07.494Z,12.44
2023-04-27T18:56:36.644Z,12.52
2023-04-27T19:00:06.478Z,12.57
2023-04-27T19:03:37.235Z,12.65
2023-04-27T19:07:06.658Z,12.73
2023-04-27T19:10:36.053Z,12.79
2023-04-27T19:14:05.244Z,12.87
2023-04-27T19:17:34.591Z,12.92
2023-04-27T19:21:04.025Z,12.98
2023-04-27T19:24:33.174Z,13.04
2023-04-27T19:28:02.469Z,13.11
2023-04-27T19:31:32.752Z,13.19
2023-04-27T19:35:02.261Z,13.29
2023-04-27T19:38:31.354Z,13.38
2023-04-27T19:41:53.731Z,13.45
2023-04-27T19:45:23.058Z,13.51
2023-04-27T19:48:52.789Z,13.58
2023-04-27T19:52:22.378Z,13.65
2023-04-27T19:55:54.544Z,13.71
2023-04-27T19:59:25.071Z,13.78
2023-04-27T20:02:54.663Z,13.81
2023-04-27T20:06:07.309Z,13.82
2023-04-27T20:09:36.637Z,13.83
2023-04-27T20:13:05.918Z,13.85
2023-04-27T20:16:15.291Z,13.87
2023-04-27T20:19:25.538Z,13.90
2023-04-27T20:22:54.670Z,13.93
2023-04-27T20:26:24.186Z,13.97
2023-04-27T20:29:54.454Z,14.01
2023-04-27T20:33:23.817Z,14.00
2023-04-27T20:36:53.184Z,14.01
2023-04-27T20:40:18.037Z,14.03
2023-04-27T20:43:47.573Z,14.06
2023-04-27T20:47:06.971Z,14.08
2023-04-27T20:50:36.303Z,14.11
2023-04-27T20:53:59.705Z,14.12
2023-04-27T20:57:19.798Z,14.13
2023-04-27T21:00:33.281Z,14.18
2023-04-27T21:04:03.765Z,14.20
2023-04-27T21:07:33.307Z,14.22
2023-04-27T21:11:02.598Z,14.23
2023-04-27T21:14:31.888Z,14.25
2023-04-27T21:17:33.053Z,14.26
2023-04-27T21:20:46.812Z,14.24
2023-04-27T21:24:15.934Z,14.24
2023-04-27T21:27:45.436Z,14.29
2023-04-27T21:31:03.737Z,14.31
2023-04-27T21:34:33.303Z,14.32
2023-04-27T21:38:02.414Z,14.37
2023-04-27T21:41:32.034Z,14.43
2023-04-27T21:45:01.307Z,14.48
2023-04-27T21:48:30.869Z,14.55
2023-04-27T21:51:41.393Z,14.62
2023-04-27T21:55:11.044Z,14.69
2023-04-27T21:58:40.311Z,14.75
2023-04-27T22:02:09.663Z,14.82
2023-04-27T22:05:19.739Z,14.86
2023-04-27T22:08:49.332Z,14.88
2023-04-27T22:11:59.171Z,14.89
2023-04-27T22:15:28.383Z,14.89
2023-04-27T22:18:57.526Z,14.92
2023-04-27T22:22:26.810Z,14.97
2023-04-27T22:25:56.159Z,15.01
2023-04-27T22:29:25.501Z,15.06
2023-04-27T22:32:55.018Z,15.12
2023-04-27T22:36:24.967Z,15.18
2023-04-27T22:39:54.252Z,15.18
2023-04-27T22:43:24.715Z,15.17
2023-04-27T22:46:53.976Z,15.18
2023-04-27T22:50:16.844Z,15.18
2023-04-27T22:53:35.054Z,15.19
2023-04-27T22:57:04.361Z,15.22
2023-04-27T23:00:33.703Z,15.26
2023-04-27T23:04:03.545Z,15.29
2023-04-27T23:07:32.803Z,15.33
2023-04-27T23:11:02.400Z,15.38
2023-04-27T23:14:31.716Z,15.44
2023-04-27T23:18:01.694Z,15.50
2023-04-27T23:21:37.084Z,15.52
2023-04-27T23:25:06.328Z,15.57
2023-04-27T23:28:25.682Z,15.63
2023-04-27T23:31:55.183Z,15.67
2023-04-27T23:35:24.598Z,15.76
2023-04-27T23:38:55.179Z,15.85
2023-04-27T23:42:24.477Z,15.91
2023-04-27T23:45:46.906Z,15.98
2023-04-27T23:49:08.927Z,16.04
2023-04-27T23:52:38.180Z,16.10
2023-04-27T23:56:07.447Z,16.17
2023-04-27T23:59:36.658Z,16.23
